Terminal Aerodrome Forecast
Issued by NWS

Home | Current Version | Previous Version | Text Only | Print | Product List | Glossary On
Versions: 1 2 3 4 5 6 7 8 9 10 11 12 13 14 15 16 17 18 19 20 21 22 23 24 25 26 27 28 29 30 31 32 33 34 35
000
FTUS41 KBOX 041511 AAB
TAFHYA
TAF AMD
KHYA 041511Z 0415/0512 21009KT P6SM BKN070
     FM041700 21012G21KT P6SM VCTS BKN070CB
     FM050100 24010KT P6SM VCTS BKN250CB
     FM050300 24008KT P6SM BKN050
     FM050900 25004KT P6SM BKN070
     FM051100 VRB03KT P6SM SCT090=

USA.gov is the U.S. government's official web portal to all federal, state and local government web resources and services.